createdAt,value
2023-12-11T00:00:27.418Z,17.30
2023-12-11T00:02:57.766Z,18.60
2023-12-11T00:05:26.062Z,19.08
2023-12-11T00:07:54.905Z,17.88
2023-12-11T00:10:22.088Z,21.33
2023-12-11T00:12:52.159Z,14.52
2023-12-11T00:15:21.451Z,16.73
2023-12-11T00:17:50.431Z,15.93
2023-12-11T00:20:33.134Z,20.90
2023-12-11T00:23:02.194Z,20.75
2023-12-11T00:25:34.657Z,21.10
2023-12-11T00:28:02.669Z,21.40
2023-12-11T00:30:34.094Z,21.98
2023-12-11T00:33:03.653Z,22.83
2023-12-11T00:35:35.245Z,23.58
2023-12-11T00:38:05.650Z,19.67
2023-12-11T00:40:35.438Z,21.58
2023-12-11T00:43:04.759Z,26.17
2023-12-11T00:45:33.013Z,22.02
2023-12-11T00:48:02.730Z,21.77
2023-12-11T00:50:30.505Z,20.42
2023-12-11T00:52:59.378Z,28.73
2023-12-11T00:55:28.137Z,19.95
2023-12-11T00:58:01.936Z,23.83
2023-12-11T01:00:31.249Z,24.40
2023-12-11T01:03:01.081Z,25.02
2023-12-11T01:05:34.253Z,21.52
2023-12-11T01:08:02.583Z,25.38
2023-12-11T01:10:30.149Z,24.30
2023-12-11T01:12:57.817Z,22.98
2023-12-11T01:15:28.358Z,20.67
2023-12-11T01:17:56.761Z,26.58
2023-12-11T01:20:27.854Z,22.90
2023-12-11T01:22:56.197Z,24.20
2023-12-11T01:25:23.617Z,17.88
2023-12-11T01:27:52.169Z,25.88
2023-12-11T01:30:21.032Z,24.80
2023-12-11T01:32:51.582Z,16.67
2023-12-11T01:35:19.189Z,17.70
2023-12-11T01:37:49.178Z,24.05
2023-12-11T01:40:21.321Z,17.15
2023-12-11T01:42:49.672Z,23.15
2023-12-11T01:45:18.041Z,16.63
2023-12-11T01:47:49.385Z,21.98
2023-12-11T01:50:21.509Z,21.95
2023-12-11T01:52:48.448Z,18.08
2023-12-11T01:55:17.362Z,18.95
2023-12-11T01:57:45.783Z,21.98
2023-12-11T02:00:15.358Z,21.52
2023-12-11T02:02:44.922Z,31.25
2023-12-11T02:05:13.670Z,19.70
2023-12-11T02:07:43.699Z,21.42
2023-12-11T02:10:11.447Z,25.88
2023-12-11T02:12:39.629Z,24.20
2023-12-11T02:15:07.569Z,22.17
2023-12-11T02:17:34.609Z,24.33
2023-12-11T02:20:02.292Z,24.50
2023-12-11T02:22:31.006Z,22.38
2023-12-11T02:25:04.282Z,26.15
2023-12-11T02:27:33.999Z,21.90
2023-12-11T02:30:04.384Z,22.65
2023-12-11T02:32:31.901Z,23.27
2023-12-11T02:35:00.438Z,23.60
2023-12-11T02:37:37.243Z,22.02
2023-12-11T02:40:04.715Z,21.85
2023-12-11T02:42:34.246Z,23.00
2023-12-11T02:45:04.789Z,25.83
2023-12-11T02:47:37.349Z,22.02
2023-12-11T02:50:05.680Z,23.95
2023-12-11T02:52:33.584Z,25.98
2023-12-11T02:55:00.900Z,26.42
2023-12-11T02:57:30.111Z,21.90
2023-12-11T02:59:58.054Z,22.83
2023-12-11T03:02:26.863Z,25.92
2023-12-11T03:04:59.359Z,27.35
2023-12-11T03:07:28.599Z,24.33
2023-12-11T03:09:58.824Z,27.67
2023-12-11T03:12:28.863Z,26.75
2023-12-11T03:14:58.994Z,21.35
2023-12-11T03:17:30.620Z,17.63
2023-12-11T03:19:58.412Z,16.75
2023-12-11T03:22:26.520Z,17.73
2023-12-11T03:24:59.218Z,23.58
2023-12-11T03:27:30.979Z,21.70
2023-12-11T03:29:58.441Z,23.33
2023-12-11T03:32:26.560Z,23.52
2023-12-11T03:35:07.098Z,21.42
2023-12-11T03:37:35.448Z,23.02
2023-12-11T03:40:15.085Z,21.30
2023-12-11T03:42:44.871Z,24.30
2023-12-11T03:45:16.233Z,23.77
2023-12-11T03:47:45.915Z,27.20
2023-12-11T03:50:14.166Z,24.67
2023-12-11T03:52:41.152Z,24.52
2023-12-11T03:55:13.102Z,20.95
2023-12-11T03:57:41.089Z,24.48
2023-12-11T04:00:14.250Z,24.77
2023-12-11T04:05:10.724Z,33.20
2023-12-11T04:07:38.122Z,29.98
2023-12-11T04:10:10.440Z,33.13
2023-12-11T04:12:40.056Z,40.08
2023-12-11T04:15:11.751Z,39.25
2023-12-11T04:17:43.890Z,37.00
2023-12-11T04:20:12.004Z,39.13
2023-12-11T04:22:43.052Z,40.45
2023-12-11T04:25:10.363Z,38.78
2023-12-11T04:27:40.695Z,38.13
2023-12-11T04:30:08.617Z,37.50
2023-12-11T04:32:40.723Z,41.97
2023-12-11T04:35:08.972Z,38.08
2023-12-11T04:37:40.261Z,39.60
2023-12-11T04:40:16.012Z,38.40
2023-12-11T04:42:47.034Z,33.75
2023-12-11T04:45:16.214Z,36.20
2023-12-11T04:47:45.333Z,35.65
2023-12-11T04:50:15.683Z,35.50
2023-12-11T04:52:42.607Z,37.50
2023-12-11T04:55:11.709Z,36.15
2023-12-11T04:57:40.917Z,36.60
2023-12-11T05:00:11.968Z,37.05
2023-12-11T05:02:42.941Z,37.22
2023-12-11T05:05:11.506Z,41.22
2023-12-11T05:07:41.638Z,34.85
2023-12-11T05:10:24.475Z,39.58
2023-12-11T05:16:08.481Z,37.00
2023-12-11T05:18:40.521Z,36.40
2023-12-11T05:21:12.083Z,40.87
2023-12-11T05:23:50.374Z,37.50
2023-12-11T05:26:45.749Z,35.67
2023-12-11T05:29:15.392Z,39.20
2023-12-11T05:31:42.467Z,37.10
2023-12-11T05:34:12.163Z,39.25
2023-12-11T05:36:40.973Z,37.97
2023-12-11T05:39:11.468Z,40.75
2023-12-11T05:41:42.861Z,38.47
2023-12-11T05:44:11.185Z,44.67
2023-12-11T05:46:38.969Z,37.05
2023-12-11T05:49:07.357Z,34.60
2023-12-11T05:51:36.340Z,31.45
2023-12-11T05:54:03.479Z,34.03
2023-12-11T05:56:31.981Z,36.92
2023-12-11T05:58:59.213Z,38.30
2023-12-11T06:01:27.342Z,34.75
2023-12-11T06:03:58.051Z,37.45
2023-12-11T06:06:28.630Z,37.83
2023-12-11T06:08:56.961Z,30.20
2023-12-11T06:11:23.866Z,39.97
2023-12-11T06:13:51.700Z,36.63
2023-12-11T06:16:19.008Z,35.92
2023-12-11T06:18:48.342Z,39.30
2023-12-11T06:21:22.646Z,44.92
2023-12-11T06:23:50.635Z,37.42
2023-12-11T06:26:36.357Z,35.78
2023-12-11T06:29:03.923Z,38.20
2023-12-11T06:31:34.705Z,33.97
2023-12-11T06:34:06.869Z,31.70
2023-12-11T06:36:34.177Z,36.70
2023-12-11T06:39:03.779Z,31.50
2023-12-11T06:41:30.660Z,32.63
2023-12-11T06:43:59.222Z,33.70
2023-12-11T06:46:31.037Z,31.20
2023-12-11T06:48:59.188Z,35.85
2023-12-11T06:51:26.385Z,34.78
2023-12-11T06:54:02.054Z,40.20
2023-12-11T06:56:33.823Z,33.85
2023-12-11T06:59:04.513Z,39.65
2023-12-11T07:01:35.391Z,41.05
2023-12-11T07:04:03.746Z,34.25
2023-12-11T07:06:32.661Z,34.70
2023-12-11T07:09:01.476Z,33.78
2023-12-11T07:11:29.485Z,34.85
2023-12-11T07:13:56.769Z,36.47
2023-12-11T07:16:27.353Z,38.78
2023-12-11T07:18:56.194Z,35.60
2023-12-11T07:21:23.281Z,44.95
2023-12-11T07:23:51.751Z,45.72
2023-12-11T07:26:19.100Z,40.58
2023-12-11T07:28:51.012Z,39.80
2023-12-11T07:31:19.779Z,38.05
2023-12-11T07:33:48.221Z,38.67
2023-12-11T07:36:17.198Z,36.15
2023-12-11T07:38:45.690Z,35.03
2023-12-11T07:41:13.880Z,36.58
2023-12-11T07:43:46.147Z,39.45
2023-12-11T07:46:21.381Z,43.72
2023-12-11T07:48:51.818Z,37.47
2023-12-11T07:51:26.945Z,42.25
2023-12-11T07:54:03.014Z,48.38
2023-12-11T07:56:31.247Z,46.22
2023-12-11T07:58:58.209Z,42.28
2023-12-11T08:01:26.550Z,47.47
2023-12-11T08:03:55.223Z,42.53
2023-12-11T08:06:22.809Z,44.25
2023-12-11T08:08:50.452Z,41.15
2023-12-11T08:11:23.488Z,43.47
2023-12-11T08:16:20.260Z,45.75
2023-12-11T08:18:49.650Z,44.40
2023-12-11T08:21:20.313Z,45.40
2023-12-11T08:23:52.469Z,41.30
2023-12-11T08:26:20.865Z,43.57
2023-12-11T08:28:50.585Z,47.40
2023-12-11T08:31:18.085Z,43.58
2023-12-11T08:33:46.989Z,39.78
2023-12-11T08:36:15.988Z,46.70
2023-12-11T08:38:42.958Z,45.38
2023-12-11T08:41:09.982Z,46.00
2023-12-11T08:43:52.526Z,47.22
2023-12-11T08:46:21.634Z,50.42
2023-12-11T08:48:52.952Z,51.53
2023-12-11T08:51:22.040Z,45.80
2023-12-11T08:53:49.498Z,50.30
2023-12-11T08:56:18.614Z,42.83
2023-12-11T08:58:50.382Z,35.00
2023-12-11T09:01:19.851Z,40.00
2023-12-11T09:03:48.571Z,38.08
2023-12-11T09:06:16.778Z,38.55
2023-12-11T09:08:44.092Z,33.63
2023-12-11T09:11:11.619Z,36.10
2023-12-11T09:13:40.613Z,35.08
2023-12-11T09:16:11.337Z,31.60
2023-12-11T09:18:38.727Z,35.40
2023-12-11T09:26:32.344Z,35.20
2023-12-11T09:29:08.992Z,34.55
2023-12-11T09:31:47.871Z,37.65
2023-12-11T09:34:15.781Z,34.42
2023-12-11T09:36:54.548Z,34.20
2023-12-11T09:39:28.636Z,34.83
2023-12-11T09:41:57.576Z,35.80
2023-12-11T09:44:24.468Z,38.85
2023-12-11T09:47:09.007Z,35.17
2023-12-11T09:52:23.664Z,38.58
2023-12-11T09:54:53.061Z,44.30
2023-12-11T09:57:23.747Z,43.03
2023-12-11T10:00:07.843Z,37.60
2023-12-11T10:02:39.244Z,41.05
2023-12-11T10:05:11.155Z,39.63
2023-12-11T10:10:44.791Z,36.22
2023-12-11T10:13:12.832Z,44.03
2023-12-11T10:15:42.590Z,38.58
2023-12-11T10:18:18.301Z,36.20
2023-12-11T10:20:55.629Z,32.88
2023-12-11T10:23:31.047Z,35.45
2023-12-11T10:26:08.944Z,34.65
2023-12-11T10:28:36.237Z,36.80
2023-12-11T10:31:03.948Z,35.42
2023-12-11T10:33:32.466Z,37.00
2023-12-11T10:36:11.447Z,33.33
2023-12-11T10:38:38.826Z,36.55
2023-12-11T10:41:08.817Z,39.03
2023-12-11T10:43:55.984Z,34.85
2023-12-11T10:49:17.792Z,36.22
2023-12-11T10:52:04.339Z,39.03
2023-12-11T11:00:06.417Z,35.25
2023-12-11T12:04:12.290Z,30.45
2023-12-11T12:06:40.251Z,35.50
2023-12-11T12:09:07.514Z,32.10
2023-12-11T12:11:40.814Z,30.75
2023-12-11T12:14:15.803Z,33.67
2023-12-11T12:16:50.601Z,29.75
2023-12-11T12:19:22.107Z,29.63
2023-12-11T12:21:55.501Z,29.35
2023-12-11T12:27:11.481Z,32.63
2023-12-11T12:29:44.548Z,31.30
2023-12-11T12:34:46.248Z,34.08
2023-12-11T12:37:13.580Z,32.25
2023-12-11T12:57:27.357Z,33.05
2023-12-11T13:02:42.966Z,30.60
2023-12-11T13:05:12.801Z,39.40
2023-12-11T13:07:41.904Z,30.70
2023-12-11T13:10:32.305Z,30.20
2023-12-11T13:13:13.491Z,34.63
2023-12-11T13:15:41.269Z,27.65
2023-12-11T13:18:15.739Z,28.27
2023-12-11T13:20:48.109Z,25.67
2023-12-11T13:23:16.290Z,29.02
2023-12-11T13:25:44.052Z,26.63
2023-12-11T13:28:13.416Z,24.15
2023-12-11T13:30:41.225Z,29.50
2023-12-11T13:33:08.704Z,31.33
2023-12-11T13:35:43.523Z,29.08
2023-12-11T13:38:17.541Z,30.95
2023-12-11T13:40:44.476Z,30.45
2023-12-11T15:52:25.122Z,32.97
2023-12-11T19:34:17.733Z,34.70
2023-12-11T19:45:11.393Z,45.83
2023-12-11T21:07:52.335Z,2.30
2023-12-11T23:01:12.797Z,3.20
2023-12-11T23:03:40.281Z,2.00
2023-12-11T23:06:15.594Z,2.35
2023-12-11T23:08:43.935Z,5.40
2023-12-11T23:11:11.179Z,3.72
2023-12-11T23:13:40.173Z,2.17
2023-12-11T23:16:09.395Z,4.00
2023-12-11T23:18:41.416Z,1.73
2023-12-11T23:21:20.181Z,3.33
2023-12-11T23:23:52.326Z,3.72
2023-12-11T23:26:21.839Z,4.70
2023-12-11T23:28:52.089Z,2.90
2023-12-11T23:31:19.132Z,2.45
2023-12-11T23:33:50.494Z,8.15
2023-12-11T23:36:22.881Z,4.45
2023-12-11T23:38:50.424Z,3.97
2023-12-11T23:41:23.591Z,2.08
2023-12-11T23:43:55.857Z,5.53
2023-12-11T23:46:25.019Z,3.90
2023-12-11T23:48:54.115Z,5.15
2023-12-11T23:51:25.928Z,5.15
2023-12-11T23:53:56.207Z,2.70
2023-12-11T23:56:25.329Z,4.00
2023-12-11T23:58:53.313Z,5.55
